sensor_id;sensor_type;location;lat;lon;timestamp;temperature;humidity
10472;DHT22;5283;48.876;8.962;2022-12-29T00:00:53;7.50;99.90
10472;DHT22;5283;48.876;8.962;2022-12-29T00:03:20;7.50;99.90
10472;DHT22;5283;48.876;8.962;2022-12-29T00:05:54;7.60;99.90
10472;DHT22;5283;48.876;8.962;2022-12-29T00:08:21;7.60;99.90
10472;DHT22;5283;48.876;8.962;2022-12-29T00:11:10;7.70;99.90
10472;DHT22;5283;48.876;8.962;2022-12-29T00:13:38;7.70;99.90
10472;DHT22;5283;48.876;8.962;2022-12-29T00:16:23;7.70;99.90
10472;DHT22;5283;48.876;8.962;2022-12-29T00:18:50;7.70;99.90
10472;DHT22;5283;48.876;8.962;2022-12-29T00:21:19;7.80;99.90
10472;DHT22;5283;48.876;8.962;2022-12-29T00:24:05;7.90;99.90
10472;DHT22;5283;48.876;8.962;2022-12-29T00:29:51;7.90;99.90
10472;DHT22;5283;48.876;8.962;2022-12-29T00:32:50;7.90;99.90
10472;DHT22;5283;48.876;8.962;2022-12-29T00:35:44;8.10;99.90
10472;DHT22;5283;48.876;8.962;2022-12-29T00:38:12;8.10;99.90
10472;DHT22;5283;48.876;8.962;2022-12-29T00:40:58;8.20;99.90
10472;DHT22;5283;48.876;8.962;2022-12-29T00:43:43;8.20;99.90
10472;DHT22;5283;48.876;8.962;2022-12-29T00:46:28;8.20;99.90
10472;DHT22;5283;48.876;8.962;2022-12-29T00:48:55;8.20;99.90
10472;DHT22;5283;48.876;8.962;2022-12-29T00:51:41;8.20;99.90
10472;DHT22;5283;48.876;8.962;2022-12-29T00:54:08;8.20;99.90
10472;DHT22;5283;48.876;8.962;2022-12-29T00:56:34;8.30;99.90
10472;DHT22;5283;48.876;8.962;2022-12-29T00:59:07;8.30;99.90
10472;DHT22;5283;48.876;8.962;2022-12-29T01:01:35;8.40;99.90
10472;DHT22;5283;48.876;8.962;2022-12-29T01:04:02;8.40;99.90
10472;DHT22;5283;48.876;8.962;2022-12-29T01:06:30;8.40;99.90
10472;DHT22;5283;48.876;8.962;2022-12-29T01:08:57;8.40;99.90
10472;DHT22;5283;48.876;8.962;2022-12-29T01:11:43;8.50;99.90
10472;DHT22;5283;48.876;8.962;2022-12-29T01:14:09;8.50;99.90
10472;DHT22;5283;48.876;8.962;2022-12-29T01:16:36;8.50;99.90
10472;DHT22;5283;48.876;8.962;2022-12-29T01:19:03;8.50;99.90
10472;DHT22;5283;48.876;8.962;2022-12-29T01:21:30;8.50;99.90
10472;DHT22;5283;48.876;8.962;2022-12-29T01:23:57;8.50;99.90
10472;DHT22;5283;48.876;8.962;2022-12-29T01:26:24;8.40;99.90
10472;DHT22;5283;48.876;8.962;2022-12-29T01:28:51;8.30;99.90
10472;DHT22;5283;48.876;8.962;2022-12-29T01:31:17;8.30;99.90
10472;DHT22;5283;48.876;8.962;2022-12-29T01:33:44;8.30;99.90
10472;DHT22;5283;48.876;8.962;2022-12-29T01:36:13;8.50;99.90
10472;DHT22;5283;48.876;8.962;2022-12-29T01:38:41;8.50;99.90
10472;DHT22;5283;48.876;8.962;2022-12-29T01:41:10;8.50;99.90
10472;DHT22;5283;48.876;8.962;2022-12-29T01:43:41;8.50;99.90
10472;DHT22;5283;48.876;8.962;2022-12-29T01:48:53;8.40;99.90
10472;DHT22;5283;48.876;8.962;2022-12-29T01:51:23;8.40;99.90
10472;DHT22;5283;48.876;8.962;2022-12-29T01:53:53;8.30;99.90
10472;DHT22;5283;48.876;8.962;2022-12-29T01:56:21;8.20;99.90
10472;DHT22;5283;48.876;8.962;2022-12-29T01:58:50;8.20;99.90
10472;DHT22;5283;48.876;8.962;2022-12-29T02:01:20;8.20;99.90
10472;DHT22;5283;48.876;8.962;2022-12-29T02:03:49;8.20;99.90
10472;DHT22;5283;48.876;8.962;2022-12-29T02:06:24;8.20;99.90
10472;DHT22;5283;48.876;8.962;2022-12-29T02:08:54;8.00;99.90
10472;DHT22;5283;48.876;8.962;2022-12-29T02:11:23;7.90;99.90
10472;DHT22;5283;48.876;8.962;2022-12-29T02:13:50;7.70;99.90
10472;DHT22;5283;48.876;8.962;2022-12-29T02:16:40;7.70;99.90
10472;DHT22;5283;48.876;8.962;2022-12-29T02:22:34;7.50;99.90
10472;DHT22;5283;48.876;8.962;2022-12-29T02:35:55;7.90;99.90
10472;DHT22;5283;48.876;8.962;2022-12-29T02:38:34;7.90;99.90
10472;DHT22;5283;48.876;8.962;2022-12-29T02:41:19;7.80;99.90
10472;DHT22;5283;48.876;8.962;2022-12-29T02:46:41;9.90;99.90
10472;DHT22;5283;48.876;8.962;2022-12-29T02:49:22;10.00;99.90
10472;DHT22;5283;48.876;8.962;2022-12-29T02:52:00;10.50;99.90
10472;DHT22;5283;48.876;8.962;2022-12-29T02:54:27;11.00;99.90
10472;DHT22;5283;48.876;8.962;2022-12-29T02:57:29;11.20;99.90
10472;DHT22;5283;48.876;8.962;2022-12-29T03:00:08;11.10;99.90
10472;DHT22;5283;48.876;8.962;2022-12-29T03:08:28;11.30;99.90
10472;DHT22;5283;48.876;8.962;2022-12-29T03:11:05;11.30;99.90
10472;DHT22;5283;48.876;8.962;2022-12-29T03:13:56;11.40;99.90
10472;DHT22;5283;48.876;8.962;2022-12-29T03:16:53;11.40;99.90
10472;DHT22;5283;48.876;8.962;2022-12-29T03:19:34;11.30;99.90
10472;DHT22;5283;48.876;8.962;2022-12-29T03:22:10;11.10;99.90
10472;DHT22;5283;48.876;8.962;2022-12-29T03:25:04;11.20;99.90
10472;DHT22;5283;48.876;8.962;2022-12-29T03:27:40;11.30;99.90
10472;DHT22;5283;48.876;8.962;2022-12-29T03:30:07;11.30;99.90
10472;DHT22;5283;48.876;8.962;2022-12-29T03:32:40;11.40;99.90
10472;DHT22;5283;48.876;8.962;2022-12-29T03:35:11;11.50;99.90
10472;DHT22;5283;48.876;8.962;2022-12-29T03:37:43;11.50;99.90
10472;DHT22;5283;48.876;8.962;2022-12-29T03:40:11;11.40;99.90
10472;DHT22;5283;48.876;8.962;2022-12-29T03:42:39;11.40;99.90
10472;DHT22;5283;48.876;8.962;2022-12-29T03:45:07;11.20;99.90
10472;DHT22;5283;48.876;8.962;2022-12-29T03:47:33;11.20;99.90
10472;DHT22;5283;48.876;8.962;2022-12-29T03:50:00;11.20;99.90
10472;DHT22;5283;48.876;8.962;2022-12-29T03:52:27;11.10;99.90
10472;DHT22;5283;48.876;8.962;2022-12-29T03:54:54;11.10;99.90
10472;DHT22;5283;48.876;8.962;2022-12-29T03:57:20;10.80;99.90
10472;DHT22;5283;48.876;8.962;2022-12-29T03:59:47;10.70;99.90
10472;DHT22;5283;48.876;8.962;2022-12-29T04:02:14;10.70;99.90
10472;DHT22;5283;48.876;8.962;2022-12-29T04:04:40;10.70;99.90
10472;DHT22;5283;48.876;8.962;2022-12-29T04:07:07;10.70;99.90
10472;DHT22;5283;48.876;8.962;2022-12-29T04:09:34;10.60;99.90
10472;DHT22;5283;48.876;8.962;2022-12-29T04:12:00;10.60;99.90
10472;DHT22;5283;48.876;8.962;2022-12-29T04:14:27;10.60;99.90
10472;DHT22;5283;48.876;8.962;2022-12-29T04:16:53;10.70;99.90
10472;DHT22;5283;48.876;8.962;2022-12-29T04:19:20;10.80;99.90
10472;DHT22;5283;48.876;8.962;2022-12-29T04:21:47;10.70;99.90
10472;DHT22;5283;48.876;8.962;2022-12-29T04:24:13;10.80;99.90
10472;DHT22;5283;48.876;8.962;2022-12-29T04:26:40;10.90;99.90
10472;DHT22;5283;48.876;8.962;2022-12-29T04:29:07;11.00;99.90
10472;DHT22;5283;48.876;8.962;2022-12-29T04:31:34;10.90;99.90
10472;DHT22;5283;48.876;8.962;2022-12-29T04:34:01;10.80;99.90
10472;DHT22;5283;48.876;8.962;2022-12-29T04:36:28;10.70;99.90
10472;DHT22;5283;48.876;8.962;2022-12-29T04:38:55;10.70;99.90
10472;DHT22;5283;48.876;8.962;2022-12-29T04:41:22;10.60;99.90
10472;DHT22;5283;48.876;8.962;2022-12-29T04:43:48;10.50;99.90
10472;DHT22;5283;48.876;8.962;2022-12-29T04:46:15;10.50;99.90
10472;DHT22;5283;48.876;8.962;2022-12-29T04:48:42;10.60;99.90
10472;DHT22;5283;48.876;8.962;2022-12-29T04:51:08;10.50;99.90
10472;DHT22;5283;48.876;8.962;2022-12-29T04:53:35;10.50;99.90
10472;DHT22;5283;48.876;8.962;2022-12-29T04:56:02;10.50;99.90
10472;DHT22;5283;48.876;8.962;2022-12-29T04:58:28;10.40;99.90
10472;DHT22;5283;48.876;8.962;2022-12-29T05:00:55;10.30;99.90
10472;DHT22;5283;48.876;8.962;2022-12-29T05:03:22;10.20;99.90
10472;DHT22;5283;48.876;8.962;2022-12-29T05:05:48;10.20;99.90
10472;DHT22;5283;48.876;8.962;2022-12-29T05:08:15;10.20;99.90
10472;DHT22;5283;48.876;8.962;2022-12-29T05:10:45;10.20;99.90
10472;DHT22;5283;48.876;8.962;2022-12-29T05:13:12;10.20;99.90
10472;DHT22;5283;48.876;8.962;2022-12-29T05:15:39;10.30;99.90
10472;DHT22;5283;48.876;8.962;2022-12-29T05:18:06;10.20;99.90
10472;DHT22;5283;48.876;8.962;2022-12-29T05:20:32;10.10;99.90
10472;DHT22;5283;48.876;8.962;2022-12-29T05:22:59;10.10;99.90
10472;DHT22;5283;48.876;8.962;2022-12-29T05:25:26;10.00;99.90
10472;DHT22;5283;48.876;8.962;2022-12-29T05:27:52;10.00;99.90
10472;DHT22;5283;48.876;8.962;2022-12-29T05:30:19;10.00;99.90
10472;DHT22;5283;48.876;8.962;2022-12-29T05:32:46;10.00;99.90
10472;DHT22;5283;48.876;8.962;2022-12-29T05:35:12;9.90;99.90
10472;DHT22;5283;48.876;8.962;2022-12-29T05:37:39;10.00;99.90
10472;DHT22;5283;48.876;8.962;2022-12-29T05:40:06;10.10;99.90
10472;DHT22;5283;48.876;8.962;2022-12-29T05:42:34;10.20;99.90
10472;DHT22;5283;48.876;8.962;2022-12-29T05:45:05;10.10;99.90
10472;DHT22;5283;48.876;8.962;2022-12-29T05:47:33;10.10;99.90
10472;DHT22;5283;48.876;8.962;2022-12-29T05:50:01;10.10;99.90
10472;DHT22;5283;48.876;8.962;2022-12-29T05:52:28;10.20;99.90
10472;DHT22;5283;48.876;8.962;2022-12-29T05:54:54;10.20;99.90
10472;DHT22;5283;48.876;8.962;2022-12-29T05:57:21;10.20;99.90
10472;DHT22;5283;48.876;8.962;2022-12-29T05:59:47;10.20;99.90
10472;DHT22;5283;48.876;8.962;2022-12-29T06:02:14;10.10;99.90
10472;DHT22;5283;48.876;8.962;2022-12-29T06:04:41;10.20;99.90
10472;DHT22;5283;48.876;8.962;2022-12-29T06:07:07;10.10;99.90
10472;DHT22;5283;48.876;8.962;2022-12-29T06:09:34;10.20;99.90
10472;DHT22;5283;48.876;8.962;2022-12-29T06:12:01;10.20;99.90
10472;DHT22;5283;48.876;8.962;2022-12-29T06:14:27;10.20;99.90
10472;DHT22;5283;48.876;8.962;2022-12-29T06:16:54;10.40;99.90
10472;DHT22;5283;48.876;8.962;2022-12-29T06:19:21;10.30;99.90
10472;DHT22;5283;48.876;8.962;2022-12-29T06:21:48;10.20;99.90
10472;DHT22;5283;48.876;8.962;2022-12-29T06:24:14;10.10;99.90
10472;DHT22;5283;48.876;8.962;2022-12-29T06:26:41;9.90;99.90
10472;DHT22;5283;48.876;8.962;2022-12-29T06:29:08;9.90;99.90
10472;DHT22;5283;48.876;8.962;2022-12-29T06:31:35;9.80;99.90
10472;DHT22;5283;48.876;8.962;2022-12-29T06:34:01;9.70;99.90
10472;DHT22;5283;48.876;8.962;2022-12-29T06:36:33;9.60;99.90
10472;DHT22;5283;48.876;8.962;2022-12-29T06:39:00;9.60;99.90
10472;DHT22;5283;48.876;8.962;2022-12-29T06:41:26;9.60;99.90
10472;DHT22;5283;48.876;8.962;2022-12-29T06:43:57;9.70;99.90
10472;DHT22;5283;48.876;8.962;2022-12-29T06:46:24;9.80;99.90
10472;DHT22;5283;48.876;8.962;2022-12-29T06:48:50;9.80;99.90
10472;DHT22;5283;48.876;8.962;2022-12-29T06:51:17;9.90;99.90
10472;DHT22;5283;48.876;8.962;2022-12-29T06:53:44;9.80;99.90
10472;DHT22;5283;48.876;8.962;2022-12-29T06:56:10;9.80;99.90
10472;DHT22;5283;48.876;8.962;2022-12-29T06:58:37;9.80;99.90
10472;DHT22;5283;48.876;8.962;2022-12-29T07:01:03;9.80;99.90
10472;DHT22;5283;48.876;8.962;2022-12-29T07:03:30;9.80;99.90
10472;DHT22;5283;48.876;8.962;2022-12-29T07:05:57;9.70;99.90
10472;DHT22;5283;48.876;8.962;2022-12-29T07:08:24;9.60;99.90
10472;DHT22;5283;48.876;8.962;2022-12-29T07:10:51;9.50;99.90
10472;DHT22;5283;48.876;8.962;2022-12-29T07:13:17;9.60;99.90
10472;DHT22;5283;48.876;8.962;2022-12-29T07:15:44;9.80;99.90
10472;DHT22;5283;48.876;8.962;2022-12-29T07:18:13;9.80;99.90
10472;DHT22;5283;48.876;8.962;2022-12-29T07:20:40;10.00;99.90
10472;DHT22;5283;48.876;8.962;2022-12-29T07:23:07;10.20;99.90
10472;DHT22;5283;48.876;8.962;2022-12-29T07:25:34;10.30;99.90
10472;DHT22;5283;48.876;8.962;2022-12-29T07:28:03;10.20;99.90
10472;DHT22;5283;48.876;8.962;2022-12-29T07:30:30;10.30;99.90
10472;DHT22;5283;48.876;8.962;2022-12-29T07:32:57;10.50;99.90
10472;DHT22;5283;48.876;8.962;2022-12-29T07:35:23;10.50;99.90
10472;DHT22;5283;48.876;8.962;2022-12-29T07:37:50;10.60;99.90
10472;DHT22;5283;48.876;8.962;2022-12-29T07:40:17;10.70;99.90
10472;DHT22;5283;48.876;8.962;2022-12-29T07:42:43;10.70;99.90
10472;DHT22;5283;48.876;8.962;2022-12-29T07:45:10;10.70;99.90
10472;DHT22;5283;48.876;8.962;2022-12-29T07:47:37;10.60;99.90
10472;DHT22;5283;48.876;8.962;2022-12-29T07:50:04;10.60;99.90
10472;DHT22;5283;48.876;8.962;2022-12-29T07:52:31;10.80;99.90
10472;DHT22;5283;48.876;8.962;2022-12-29T07:54:58;10.90;99.90
10472;DHT22;5283;48.876;8.962;2022-12-29T07:57:24;10.90;99.90
10472;DHT22;5283;48.876;8.962;2022-12-29T07:59:55;10.90;99.90
10472;DHT22;5283;48.876;8.962;2022-12-29T08:02:21;10.90;99.90
10472;DHT22;5283;48.876;8.962;2022-12-29T08:04:48;10.90;99.90
10472;DHT22;5283;48.876;8.962;2022-12-29T08:07:15;11.00;99.90
10472;DHT22;5283;48.876;8.962;2022-12-29T08:09:41;11.00;99.90
10472;DHT22;5283;48.876;8.962;2022-12-29T08:12:10;11.00;99.90
10472;DHT22;5283;48.876;8.962;2022-12-29T08:14:36;10.90;99.90
10472;DHT22;5283;48.876;8.962;2022-12-29T08:17:03;11.00;99.90
10472;DHT22;5283;48.876;8.962;2022-12-29T08:19:30;10.90;99.90
10472;DHT22;5283;48.876;8.962;2022-12-29T08:21:57;10.80;99.90
10472;DHT22;5283;48.876;8.962;2022-12-29T08:24:23;10.80;99.90
10472;DHT22;5283;48.876;8.962;2022-12-29T08:26:50;10.80;99.90
10472;DHT22;5283;48.876;8.962;2022-12-29T08:29:17;10.80;99.90
10472;DHT22;5283;48.876;8.962;2022-12-29T08:31:43;10.80;99.90
10472;DHT22;5283;48.876;8.962;2022-12-29T08:34:10;10.90;99.90
10472;DHT22;5283;48.876;8.962;2022-12-29T08:36:37;10.90;99.90
10472;DHT22;5283;48.876;8.962;2022-12-29T08:39:04;10.90;99.90
10472;DHT22;5283;48.876;8.962;2022-12-29T08:41:30;11.00;99.90
10472;DHT22;5283;48.876;8.962;2022-12-29T08:43:57;11.00;99.90
10472;DHT22;5283;48.876;8.962;2022-12-29T08:46:24;11.20;99.90
10472;DHT22;5283;48.876;8.962;2022-12-29T08:48:50;11.20;99.90
10472;DHT22;5283;48.876;8.962;2022-12-29T08:51:17;11.10;99.90
10472;DHT22;5283;48.876;8.962;2022-12-29T08:53:46;11.20;99.90
10472;DHT22;5283;48.876;8.962;2022-12-29T08:56:13;11.30;99.90
10472;DHT22;5283;48.876;8.962;2022-12-29T08:58:40;11.30;99.90
10472;DHT22;5283;48.876;8.962;2022-12-29T09:01:07;11.50;99.90
10472;DHT22;5283;48.876;8.962;2022-12-29T09:03:33;11.80;99.90
10472;DHT22;5283;48.876;8.962;2022-12-29T09:06:21;12.00;99.90
10472;DHT22;5283;48.876;8.962;2022-12-29T09:08:47;12.20;99.90
10472;DHT22;5283;48.876;8.962;2022-12-29T09:11:17;12.40;99.90
10472;DHT22;5283;48.876;8.962;2022-12-29T09:13:44;12.50;99.90
10472;DHT22;5283;48.876;8.962;2022-12-29T09:16:11;12.60;99.90
10472;DHT22;5283;48.876;8.962;2022-12-29T09:18:38;12.60;99.90
10472;DHT22;5283;48.876;8.962;2022-12-29T09:21:06;12.70;99.90
10472;DHT22;5283;48.876;8.962;2022-12-29T09:23:33;12.70;99.90
10472;DHT22;5283;48.876;8.962;2022-12-29T09:26:01;12.70;99.90
10472;DHT22;5283;48.876;8.962;2022-12-29T09:28:28;12.80;99.90
10472;DHT22;5283;48.876;8.962;2022-12-29T09:30:56;12.80;99.90
10472;DHT22;5283;48.876;8.962;2022-12-29T09:33:23;12.90;99.90
10472;DHT22;5283;48.876;8.962;2022-12-29T09:35:53;12.90;99.90
10472;DHT22;5283;48.876;8.962;2022-12-29T09:38:20;13.00;99.90
10472;DHT22;5283;48.876;8.962;2022-12-29T09:40:56;13.00;99.90
10472;DHT22;5283;48.876;8.962;2022-12-29T09:46:18;13.00;99.90
10472;DHT22;5283;48.876;8.962;2022-12-29T09:51:33;13.10;99.90
10472;DHT22;5283;48.876;8.962;2022-12-29T09:56:47;13.00;99.90
10472;DHT22;5283;48.876;8.962;2022-12-29T09:59:17;12.90;99.90
10472;DHT22;5283;48.876;8.962;2022-12-29T10:02:31;12.80;99.90
10472;DHT22;5283;48.876;8.962;2022-12-29T10:04:49;12.90;99.90
10472;DHT22;5283;48.876;8.962;2022-12-29T10:07:27;12.90;99.90
10472;DHT22;5283;48.876;8.962;2022-12-29T10:10:06;13.00;99.90
10472;DHT22;5283;48.876;8.962;2022-12-29T10:18:18;12.40;99.90
10472;DHT22;5283;48.876;8.962;2022-12-29T10:20:53;11.90;99.90
10472;DHT22;5283;48.876;8.962;2022-12-29T10:23:35;11.90;99.90
10472;DHT22;5283;48.876;8.962;2022-12-29T10:26:02;11.90;99.90
10472;DHT22;5283;48.876;8.962;2022-12-29T10:28:46;12.00;99.90
10472;DHT22;5283;48.876;8.962;2022-12-29T10:31:22;12.30;99.90
10472;DHT22;5283;48.876;8.962;2022-12-29T10:33:58;12.50;99.90
10472;DHT22;5283;48.876;8.962;2022-12-29T10:36:39;12.60;99.90
10472;DHT22;5283;48.876;8.962;2022-12-29T10:42:13;12.70;99.90
10472;DHT22;5283;48.876;8.962;2022-12-29T10:44:40;12.50;99.90
10472;DHT22;5283;48.876;8.962;2022-12-29T10:47:14;12.40;99.90
10472;DHT22;5283;48.876;8.962;2022-12-29T10:49:42;12.40;99.90
10472;DHT22;5283;48.876;8.962;2022-12-29T10:52:11;12.40;99.90
10472;DHT22;5283;48.876;8.962;2022-12-29T10:54:49;12.30;99.90
10472;DHT22;5283;48.876;8.962;2022-12-29T10:57:31;12.30;99.90
10472;DHT22;5283;48.876;8.962;2022-12-29T10:59:59;12.30;99.90
10472;DHT22;5283;48.876;8.962;2022-12-29T11:02:47;12.40;99.90
10472;DHT22;5283;48.876;8.962;2022-12-29T11:07:58;12.60;99.90
10472;DHT22;5283;48.876;8.962;2022-12-29T11:10:35;12.70;99.90
10472;DHT22;5283;48.876;8.962;2022-12-29T11:13:11;12.90;99.90
10472;DHT22;5283;48.876;8.962;2022-12-29T11:15:50;13.00;99.90
10472;DHT22;5283;48.876;8.962;2022-12-29T11:18:24;13.00;99.90
10472;DHT22;5283;48.876;8.962;2022-12-29T11:20:56;13.10;99.90
10472;DHT22;5283;48.876;8.962;2022-12-29T11:23:38;13.30;99.90
10472;DHT22;5283;48.876;8.962;2022-12-29T11:26:21;13.60;99.90
10472;DHT22;5283;48.876;8.962;2022-12-29T11:31:42;13.60;99.90
10472;DHT22;5283;48.876;8.962;2022-12-29T11:34:15;13.50;99.90
10472;DHT22;5283;48.876;8.962;2022-12-29T11:36:42;13.40;99.90
10472;DHT22;5283;48.876;8.962;2022-12-29T11:39:31;13.30;99.90
10472;DHT22;5283;48.876;8.962;2022-12-29T11:41:59;13.20;99.90
10472;DHT22;5283;48.876;8.962;2022-12-29T11:44:26;13.10;99.90
10472;DHT22;5283;48.876;8.962;2022-12-29T11:46:54;13.20;99.90
10472;DHT22;5283;48.876;8.962;2022-12-29T11:49:24;13.10;99.90
10472;DHT22;5283;48.876;8.962;2022-12-29T11:51:52;13.00;99.90
10472;DHT22;5283;48.876;8.962;2022-12-29T11:54:31;13.00;99.90
10472;DHT22;5283;48.876;8.962;2022-12-29T11:57:15;12.90;99.90
10472;DHT22;5283;48.876;8.962;2022-12-29T11:59:50;12.70;99.90
10472;DHT22;5283;48.876;8.962;2022-12-29T12:02:28;12.70;99.90
10472;DHT22;5283;48.876;8.962;2022-12-29T12:05:24;12.60;99.90
10472;DHT22;5283;48.876;8.962;2022-12-29T12:08:51;12.40;99.90
10472;DHT22;5283;48.876;8.962;2022-12-29T12:10:59;12.20;99.90
10472;DHT22;5283;48.876;8.962;2022-12-29T12:13:39;12.30;99.90
10472;DHT22;5283;48.876;8.962;2022-12-29T12:16:24;12.40;99.90
10472;DHT22;5283;48.876;8.962;2022-12-29T12:18:58;12.30;99.90
10472;DHT22;5283;48.876;8.962;2022-12-29T12:21:40;12.20;99.90
10472;DHT22;5283;48.876;8.962;2022-12-29T12:30:31;12.20;99.90
10472;DHT22;5283;48.876;8.962;2022-12-29T12:32:53;12.20;99.90
10472;DHT22;5283;48.876;8.962;2022-12-29T12:38:14;12.50;99.90
10472;DHT22;5283;48.876;8.962;2022-12-29T12:41:07;12.60;99.90
10472;DHT22;5283;48.876;8.962;2022-12-29T12:43:41;12.70;99.90
10472;DHT22;5283;48.876;8.962;2022-12-29T12:46:45;12.60;99.90
10472;DHT22;5283;48.876;8.962;2022-12-29T12:49:26;12.70;99.90
10472;DHT22;5283;48.876;8.962;2022-12-29T13:00:15;12.60;99.90
10472;DHT22;5283;48.876;8.962;2022-12-29T13:17:05;12.60;99.90
10472;DHT22;5283;48.876;8.962;2022-12-29T13:19:48;12.60;99.90
10472;DHT22;5283;48.876;8.962;2022-12-29T13:25:24;12.60;99.90
10472;DHT22;5283;48.876;8.962;2022-12-29T13:28:04;12.60;99.90
10472;DHT22;5283;48.876;8.962;2022-12-29T13:34:12;12.40;99.90
10472;DHT22;5283;48.876;8.962;2022-12-29T13:39:16;12.30;99.90
10472;DHT22;5283;48.876;8.962;2022-12-29T13:41:50;12.20;99.90
10472;DHT22;5283;48.876;8.962;2022-12-29T13:44:25;12.10;99.90
10472;DHT22;5283;48.876;8.962;2022-12-29T13:46:56;12.20;99.90
10472;DHT22;5283;48.876;8.962;2022-12-29T13:49:25;12.30;99.90
10472;DHT22;5283;48.876;8.962;2022-12-29T13:51:58;12.20;99.90
10472;DHT22;5283;48.876;8.962;2022-12-29T13:54:45;12.00;99.90
10472;DHT22;5283;48.876;8.962;2022-12-29T14:00:24;12.00;99.90
10472;DHT22;5283;48.876;8.962;2022-12-29T14:05:38;12.00;99.90
10472;DHT22;5283;48.876;8.962;2022-12-29T14:08:06;12.00;99.90
10472;DHT22;5283;48.876;8.962;2022-12-29T14:10:51;12.00;99.90
10472;DHT22;5283;48.876;8.962;2022-12-29T14:13:20;12.00;99.90
10472;DHT22;5283;48.876;8.962;2022-12-29T14:15:57;12.00;99.90
10472;DHT22;5283;48.876;8.962;2022-12-29T14:18:26;11.90;99.90
10472;DHT22;5283;48.876;8.962;2022-12-29T14:23:37;11.80;99.90
10472;DHT22;5283;48.876;8.962;2022-12-29T14:28:42;11.80;99.90
10472;DHT22;5283;48.876;8.962;2022-12-29T14:36:37;11.80;99.90
10472;DHT22;5283;48.876;8.962;2022-12-29T14:44:52;11.70;99.90
10472;DHT22;5283;48.876;8.962;2022-12-29T14:53:01;11.70;99.90
10472;DHT22;5283;48.876;8.962;2022-12-29T14:55:42;11.70;99.90
10472;DHT22;5283;48.876;8.962;2022-12-29T15:00:57;11.60;99.90
10472;DHT22;5283;48.876;8.962;2022-12-29T15:06:30;11.50;99.90
10472;DHT22;5283;48.876;8.962;2022-12-29T15:09:19;11.40;99.90
10472;DHT22;5283;48.876;8.962;2022-12-29T15:14:56;11.20;99.90
10472;DHT22;5283;48.876;8.962;2022-12-29T15:17:32;11.20;99.90
10472;DHT22;5283;48.876;8.962;2022-12-29T15:20:01;11.20;99.90
10472;DHT22;5283;48.876;8.962;2022-12-29T15:22:50;11.10;99.90
10472;DHT22;5283;48.876;8.962;2022-12-29T15:25:18;9.80;99.90
10472;DHT22;5283;48.876;8.962;2022-12-29T15:28:04;9.20;99.90
10472;DHT22;5283;48.876;8.962;2022-12-29T15:30:32;9.10;99.90
10472;DHT22;5283;48.876;8.962;2022-12-29T15:32:59;9.00;99.90
10472;DHT22;5283;48.876;8.962;2022-12-29T15:35:33;8.90;99.90
10472;DHT22;5283;48.876;8.962;2022-12-29T15:38:13;8.80;99.90
10472;DHT22;5283;48.876;8.962;2022-12-29T15:40:43;8.80;99.90
10472;DHT22;5283;48.876;8.962;2022-12-29T15:43:25;8.80;99.90
10472;DHT22;5283;48.876;8.962;2022-12-29T15:45:54;8.80;99.90
10472;DHT22;5283;48.876;8.962;2022-12-29T15:48:24;8.70;99.90
10472;DHT22;5283;48.876;8.962;2022-12-29T15:50:52;8.70;99.90
10472;DHT22;5283;48.876;8.962;2022-12-29T15:55:57;8.70;99.90
10472;DHT22;5283;48.876;8.962;2022-12-29T15:58:29;8.70;99.90
10472;DHT22;5283;48.876;8.962;2022-12-29T16:00:59;8.70;99.90
10472;DHT22;5283;48.876;8.962;2022-12-29T16:03:31;8.60;99.90
10472;DHT22;5283;48.876;8.962;2022-12-29T16:06:32;8.70;99.90
10472;DHT22;5283;48.876;8.962;2022-12-29T16:09:03;8.60;99.90
10472;DHT22;5283;48.876;8.962;2022-12-29T16:12:32;8.60;99.90
10472;DHT22;5283;48.876;8.962;2022-12-29T16:14:57;8.70;99.90
10472;DHT22;5283;48.876;8.962;2022-12-29T16:17:27;8.70;99.90
10472;DHT22;5283;48.876;8.962;2022-12-29T16:20:03;8.70;99.90
10472;DHT22;5283;48.876;8.962;2022-12-29T16:22:45;8.60;99.90
10472;DHT22;5283;48.876;8.962;2022-12-29T16:25:24;8.50;99.90
10472;DHT22;5283;48.876;8.962;2022-12-29T16:27:51;8.50;99.90
10472;DHT22;5283;48.876;8.962;2022-12-29T16:30:21;8.50;99.90
10472;DHT22;5283;48.876;8.962;2022-12-29T16:32:56;8.50;99.90
10472;DHT22;5283;48.876;8.962;2022-12-29T16:35:25;8.50;99.90
10472;DHT22;5283;48.876;8.962;2022-12-29T16:40:57;8.60;99.90
10472;DHT22;5283;48.876;8.962;2022-12-29T16:43:33;8.70;99.90
10472;DHT22;5283;48.876;8.962;2022-12-29T16:48:36;8.60;99.90
10472;DHT22;5283;48.876;8.962;2022-12-29T16:51:13;8.50;99.90
10472;DHT22;5283;48.876;8.962;2022-12-29T16:53:42;8.50;99.90
10472;DHT22;5283;48.876;8.962;2022-12-29T16:56:16;8.40;99.90
10472;DHT22;5283;48.876;8.962;2022-12-29T16:58:50;8.40;99.90
10472;DHT22;5283;48.876;8.962;2022-12-29T17:01:20;8.30;99.90
10472;DHT22;5283;48.876;8.962;2022-12-29T17:03:53;8.30;99.90
10472;DHT22;5283;48.876;8.962;2022-12-29T17:06:22;8.30;99.90
10472;DHT22;5283;48.876;8.962;2022-12-29T17:08:50;8.20;99.90
10472;DHT22;5283;48.876;8.962;2022-12-29T17:11:29;8.30;99.90
10472;DHT22;5283;48.876;8.962;2022-12-29T17:14:40;8.30;99.90
10472;DHT22;5283;48.876;8.962;2022-12-29T17:17:18;8.30;99.90
10472;DHT22;5283;48.876;8.962;2022-12-29T17:19:49;8.20;99.90
10472;DHT22;5283;48.876;8.962;2022-12-29T17:22:22;8.10;99.90
10472;DHT22;5283;48.876;8.962;2022-12-29T17:24:52;8.10;99.90
10472;DHT22;5283;48.876;8.962;2022-12-29T17:27:23;8.10;99.90
10472;DHT22;5283;48.876;8.962;2022-12-29T17:29:52;8.00;99.90
10472;DHT22;5283;48.876;8.962;2022-12-29T17:32:19;8.10;99.90
10472;DHT22;5283;48.876;8.962;2022-12-29T17:34:45;8.10;99.90
10472;DHT22;5283;48.876;8.962;2022-12-29T17:37:34;8.20;99.90
10472;DHT22;5283;48.876;8.962;2022-12-29T17:40:02;8.20;99.90
10472;DHT22;5283;48.876;8.962;2022-12-29T17:42:30;8.20;99.90
10472;DHT22;5283;48.876;8.962;2022-12-29T17:45:00;8.20;99.90
10472;DHT22;5283;48.876;8.962;2022-12-29T17:47:27;8.20;99.90
10472;DHT22;5283;48.876;8.962;2022-12-29T17:49:54;8.20;99.90
10472;DHT22;5283;48.876;8.962;2022-12-29T17:52:20;8.20;99.90
10472;DHT22;5283;48.876;8.962;2022-12-29T17:54:51;8.20;99.90
10472;DHT22;5283;48.876;8.962;2022-12-29T17:57:20;8.20;99.90
10472;DHT22;5283;48.876;8.962;2022-12-29T17:59:46;8.20;99.90
10472;DHT22;5283;48.876;8.962;2022-12-29T18:02:29;8.30;99.90
10472;DHT22;5283;48.876;8.962;2022-12-29T18:04:57;8.30;99.90
10472;DHT22;5283;48.876;8.962;2022-12-29T18:07:28;8.40;99.90
10472;DHT22;5283;48.876;8.962;2022-12-29T18:09:57;8.30;99.90
10472;DHT22;5283;48.876;8.962;2022-12-29T18:12:26;8.30;99.90
10472;DHT22;5283;48.876;8.962;2022-12-29T18:14:54;8.20;99.90
10472;DHT22;5283;48.876;8.962;2022-12-29T18:17:20;8.20;99.90
10472;DHT22;5283;48.876;8.962;2022-12-29T18:19:47;8.20;99.90
10472;DHT22;5283;48.876;8.962;2022-12-29T18:22:16;8.10;99.90
10472;DHT22;5283;48.876;8.962;2022-12-29T18:24:42;8.10;99.90
10472;DHT22;5283;48.876;8.962;2022-12-29T18:27:13;8.10;99.90
10472;DHT22;5283;48.876;8.962;2022-12-29T18:29:41;8.10;99.90
10472;DHT22;5283;48.876;8.962;2022-12-29T18:32:12;8.00;99.90
10472;DHT22;5283;48.876;8.962;2022-12-29T18:34:41;8.00;99.90
10472;DHT22;5283;48.876;8.962;2022-12-29T18:37:08;7.90;99.90